PHMK METAR and TAF | Updated Today

PHMK METAR

Molokai Airport

Observation time: 32 min. ago

PHMK 291154Z AUTO 00000KT 10SM OVC049 23/19 A3004 RMK AO2 SLP174 T02280189 10239 20217 58012 TSNO

Need help? Read our tutorial on how to read METARs or read the parsed version below.

Molokai Airport (PHMK) METAR

  • Weather conditions on Sun, 29 May 2022 11:54:00 +0000 (32 min. ago):
  • Present conditions: Dry
  • Clouds: Overcast sky at 1494 meters
  • Visibility: 16093 meters
  • Wind: Calm
  • Temperature: 23 celsius
  • Dew point: 19 celsius
  • Pressure: 30.04 inHg
  • Remarks: AO2 SLP174 T02280189 10239 20217 58012 TSNO


Useful to know...

PHMK TAF

Molokai Airport

PHMK 291121Z 2912/3012 05007KT P6SM SCT025 SCT050 FM292000 04010G16KT P6SM SCT025 SCT050 FM300500 05007KT P6SM SCT025 SCT050
Observation time: 65 min. ago
Need help? Read our tutorial on how to read TAFs or read the parsed version below.

Parsed version of TAF for Molokai Airport (PHMK)

  • From 29 May at 12:00 UTC, to day 30 of the month at 12:00 UTC
  • Clouds: Scattered at 762 meters; scattered at 1524 meters
  • Wind: 50 degrees at 7
  • From day 29 of the month at 20:00 UTC
  • Clouds: Scattered at 762 meters; scattered at 1524 meters
  • Wind: 40 degrees at 10
  • From day 30 of the month at 05:00 UTC
  • Clouds: Scattered at 762 meters; scattered at 1524 meters
  • Wind: 50 degrees at 7